createdAt,value
2023-05-25T00:00:57.394Z,4.45
2023-05-25T00:04:04.537Z,4.75
2023-05-25T00:07:06.732Z,5.13
2023-05-25T00:10:09.170Z,4.60
2023-05-25T00:16:12.799Z,4.30
2023-05-25T00:19:15.657Z,3.83
2023-05-25T00:22:17.704Z,4.43
2023-05-25T00:25:20.967Z,5.10
2023-05-25T00:28:23.052Z,4.85
2023-05-25T00:31:25.257Z,4.80
2023-05-25T00:34:27.180Z,5.65
2023-05-25T00:37:28.946Z,4.50
2023-05-25T00:40:30.958Z,4.30
2023-05-25T00:43:32.895Z,4.43
2023-05-25T00:46:35.148Z,5.47
2023-05-25T00:49:37.856Z,5.35
2023-05-25T00:52:39.721Z,4.63
2023-05-25T00:56:00.007Z,4.60
2023-05-25T00:59:06.400Z,4.30
2023-05-25T01:02:13.924Z,4.25
2023-05-25T01:05:17.588Z,4.45
2023-05-25T01:08:21.938Z,5.93
2023-05-25T01:11:29.762Z,6.32
2023-05-25T01:14:32.911Z,5.70
2023-05-25T01:17:39.537Z,4.63
2023-05-25T01:20:59.735Z,4.22
2023-05-25T01:24:08.518Z,6.05
2023-05-25T01:27:22.988Z,5.07
2023-05-25T01:30:27.302Z,5.60
2023-05-25T01:33:30.761Z,5.00
2023-05-25T01:36:33.266Z,4.65
2023-05-25T01:42:36.868Z,5.15
2023-05-25T01:45:40.531Z,4.68
2023-05-25T01:48:53.902Z,4.68
2023-05-25T01:52:19.752Z,4.20
2023-05-25T01:55:22.793Z,4.78
2023-05-25T01:58:27.437Z,4.00
2023-05-25T02:01:31.221Z,4.93
2023-05-25T02:04:34.209Z,5.93
2023-05-25T02:07:36.744Z,4.72
2023-05-25T02:13:40.942Z,5.20
2023-05-25T02:16:42.841Z,5.90
2023-05-25T02:19:46.616Z,6.28
2023-05-25T02:22:48.502Z,5.18
2023-05-25T02:25:51.819Z,6.30
2023-05-25T02:28:53.777Z,4.70
2023-05-25T02:31:56.255Z,4.37
2023-05-25T02:34:58.130Z,5.82
2023-05-25T02:37:59.977Z,3.67
2023-05-25T02:41:02.052Z,4.35
2023-05-25T02:44:04.046Z,4.60
2023-05-25T02:47:07.717Z,4.85
2023-05-25T02:50:10.279Z,4.43
2023-05-25T02:53:17.923Z,4.00
2023-05-25T02:56:19.885Z,4.65
2023-05-25T02:59:21.755Z,5.30
2023-05-25T03:02:25.617Z,5.63
2023-05-25T03:05:27.945Z,4.50
2023-05-25T03:08:30.805Z,4.38
2023-05-25T03:11:34.433Z,4.78
2023-05-25T03:14:38.348Z,4.72
2023-05-25T03:17:41.862Z,4.68
2023-05-25T03:20:44.135Z,3.97
2023-05-25T03:26:48.198Z,5.18
2023-05-25T03:29:51.582Z,5.57
2023-05-25T03:32:53.556Z,4.50
2023-05-25T03:38:58.538Z,5.10
2023-05-25T03:42:01.093Z,5.93
2023-05-25T03:48:05.362Z,4.93
2023-05-25T03:54:09.437Z,5.82
2023-05-25T03:57:11.334Z,4.70
2023-05-25T04:00:14.135Z,5.20
2023-05-25T04:03:17.894Z,4.82
2023-05-25T04:06:19.971Z,4.32
2023-05-25T04:09:23.942Z,4.05
2023-05-25T04:12:27.275Z,5.60
2023-05-25T04:15:30.596Z,4.90
2023-05-25T04:18:45.201Z,6.10
2023-05-25T04:21:48.197Z,5.10
2023-05-25T04:24:51.297Z,4.10
2023-05-25T04:27:53.727Z,6.13
2023-05-25T04:31:13.644Z,4.32
2023-05-25T04:34:51.167Z,4.47
2023-05-25T04:37:57.737Z,5.22
2023-05-25T04:41:01.978Z,4.45
2023-05-25T04:44:09.798Z,5.20
2023-05-25T04:47:19.890Z,5.43
2023-05-25T04:50:21.946Z,4.35
2023-05-25T04:53:25.883Z,5.10
2023-05-25T04:56:27.971Z,5.07
2023-05-25T04:59:29.841Z,4.75
2023-05-25T05:02:32.597Z,5.03
2023-05-25T05:05:36.087Z,3.78
2023-05-25T05:08:39.679Z,4.88
2023-05-25T05:11:41.548Z,6.60
2023-05-25T05:14:43.637Z,5.32
2023-05-25T05:17:45.671Z,4.20
2023-05-25T05:20:49.285Z,4.72
2023-05-25T05:23:52.486Z,5.60
2023-05-25T05:30:27.102Z,5.55
2023-05-25T05:33:29.143Z,6.80
2023-05-25T05:36:42.106Z,4.22
2023-05-25T05:39:55.104Z,5.85
2023-05-25T05:42:57.025Z,6.20
2023-05-25T05:45:58.910Z,5.63
2023-05-25T05:49:00.886Z,5.43
2023-05-25T05:52:04.012Z,6.90
2023-05-25T05:55:06.440Z,8.00
2023-05-25T05:58:08.767Z,6.85
2023-05-25T06:01:10.929Z,7.22
2023-05-25T06:04:12.851Z,6.22
2023-05-25T06:07:14.696Z,6.40
2023-05-25T06:10:16.785Z,4.78
2023-05-25T06:13:19.404Z,6.43
2023-05-25T06:16:21.261Z,6.70
2023-05-25T06:19:23.261Z,7.07
2023-05-25T06:22:27.976Z,6.80
2023-05-25T06:25:31.394Z,6.97
2023-05-25T06:28:33.881Z,8.48
2023-05-25T06:34:38.858Z,7.10
2023-05-25T06:37:40.748Z,7.57
2023-05-25T06:40:42.939Z,6.57
2023-05-25T06:43:44.773Z,6.38
2023-05-25T06:50:00.425Z,7.15
2023-05-25T06:56:04.285Z,7.13
2023-05-25T06:59:06.266Z,6.00
2023-05-25T07:02:08.041Z,8.55
2023-05-25T07:05:10.114Z,7.45
2023-05-25T07:08:12.054Z,6.70
2023-05-25T07:11:14.398Z,8.88
2023-05-25T07:17:19.515Z,6.55
2023-05-25T07:23:23.977Z,5.95
2023-05-25T07:26:25.839Z,7.22
2023-05-25T07:29:27.621Z,6.80
2023-05-25T07:32:29.607Z,6.47
2023-05-25T07:35:31.534Z,5.55
2023-05-25T07:38:33.419Z,7.18
2023-05-25T07:41:35.630Z,7.00
2023-05-25T07:44:37.477Z,7.53
2023-05-25T07:47:39.420Z,7.80
2023-05-25T07:50:41.458Z,8.65
2023-05-25T07:53:43.373Z,7.30
2023-05-25T07:56:45.307Z,7.40
2023-05-25T07:59:47.195Z,8.88
2023-05-25T08:02:49.481Z,8.32
2023-05-25T08:05:51.975Z,6.00
2023-05-25T08:12:07.815Z,8.87
2023-05-25T08:15:17.820Z,8.30
2023-05-25T08:18:19.778Z,9.10
2023-05-25T08:21:21.649Z,9.18
2023-05-25T08:24:23.442Z,7.00
2023-05-25T08:27:25.330Z,6.75
2023-05-25T08:30:27.320Z,7.18
2023-05-25T08:33:29.196Z,8.40
2023-05-25T08:36:34.305Z,6.72
2023-05-25T08:39:36.182Z,8.02
2023-05-25T08:42:38.031Z,6.85
2023-05-25T08:45:45.153Z,6.93
2023-05-25T08:48:51.998Z,6.60
2023-05-25T08:51:54.927Z,6.75
2023-05-25T08:55:01.492Z,6.38
2023-05-25T08:58:10.460Z,5.05
2023-05-25T09:01:18.384Z,5.78
2023-05-25T09:04:21.345Z,6.50
2023-05-25T09:07:24.612Z,7.88
2023-05-25T09:10:27.895Z,5.63
2023-05-25T09:13:30.107Z,6.03
2023-05-25T09:16:33.485Z,7.57
2023-05-25T09:19:36.761Z,6.53
2023-05-25T09:22:38.782Z,6.32
2023-05-25T09:25:41.662Z,5.55
2023-05-25T09:28:47.575Z,5.60
2023-05-25T09:31:51.141Z,6.45
2023-05-25T09:34:53.700Z,6.30
2023-05-25T09:37:55.916Z,5.75
2023-05-25T09:40:59.837Z,7.18
2023-05-25T09:44:11.024Z,5.82
2023-05-25T09:47:15.326Z,6.80
2023-05-25T09:50:18.069Z,5.13
2023-05-25T09:53:20.684Z,5.93
2023-05-25T09:56:23.978Z,6.28
2023-05-25T09:59:25.905Z,6.20
2023-05-25T10:02:28.423Z,6.95
2023-05-25T10:05:30.297Z,5.43
2023-05-25T10:08:33.577Z,5.40
2023-05-25T10:11:39.091Z,6.57
2023-05-25T10:14:42.983Z,4.88
2023-05-25T10:17:52.451Z,4.85
2023-05-25T10:21:02.830Z,4.90
2023-05-25T10:24:09.829Z,5.35
2023-05-25T10:27:27.065Z,5.18
2023-05-25T10:30:41.747Z,4.72
2023-05-25T10:33:47.452Z,4.47
2023-05-25T10:36:54.059Z,5.22
2023-05-25T10:39:57.590Z,4.20
2023-05-25T10:42:59.929Z,3.83
2023-05-25T10:46:02.053Z,5.18
2023-05-25T10:49:04.248Z,4.45
2023-05-25T10:55:09.709Z,3.90
2023-05-25T10:58:16.864Z,4.53
2023-05-25T11:01:18.924Z,4.80
2023-05-25T11:04:20.921Z,4.28
2023-05-25T11:07:22.888Z,4.35
2023-05-25T11:10:54.496Z,4.65
2023-05-25T11:13:56.683Z,4.60
2023-05-25T11:17:19.858Z,4.45
2023-05-25T11:20:24.359Z,6.03
2023-05-25T11:23:26.411Z,6.13
2023-05-25T11:26:33.605Z,6.28
2023-05-25T11:29:37.427Z,5.28
2023-05-25T11:32:49.213Z,4.55
2023-05-25T11:35:52.366Z,4.85
2023-05-25T11:39:04.782Z,4.72
2023-05-25T11:42:11.639Z,6.00
2023-05-25T11:45:14.865Z,4.63
2023-05-25T11:48:16.957Z,6.13
2023-05-25T11:54:24.257Z,4.15
2023-05-25T11:57:26.343Z,3.92
2023-05-25T12:00:28.659Z,3.53
2023-05-25T12:03:34.485Z,3.40
2023-05-25T12:06:40.426Z,4.25
2023-05-25T12:09:42.382Z,3.90
2023-05-25T12:12:49.444Z,4.50
2023-05-25T12:15:52.479Z,4.22
2023-05-25T12:18:55.097Z,4.28
2023-05-25T12:21:57.091Z,3.63
2023-05-25T12:24:58.981Z,3.22
2023-05-25T12:28:16.415Z,4.18
2023-05-25T12:31:25.616Z,3.72
2023-05-25T12:34:28.825Z,3.63
2023-05-25T12:37:30.983Z,3.83
2023-05-25T12:43:43.141Z,5.80
2023-05-25T12:46:45.126Z,3.97
2023-05-25T12:49:48.584Z,3.95
2023-05-25T12:52:50.499Z,4.93
2023-05-25T12:56:01.734Z,4.10
2023-05-25T12:59:16.645Z,2.92
2023-05-25T13:02:18.540Z,5.05
2023-05-25T13:05:28.369Z,3.55
2023-05-25T13:08:30.550Z,3.95
2023-05-25T13:14:34.421Z,3.67
2023-05-25T13:17:36.359Z,4.30
2023-05-25T13:20:38.480Z,3.75
2023-05-25T13:26:44.017Z,4.60
2023-05-25T13:29:45.865Z,3.97
2023-05-25T13:32:50.403Z,4.05
2023-05-25T13:36:13.565Z,4.35
2023-05-25T13:39:15.413Z,3.67
2023-05-25T13:42:17.957Z,2.70
2023-05-25T13:45:19.840Z,3.90
2023-05-25T13:48:22.410Z,4.18
2023-05-25T13:51:24.297Z,4.13
2023-05-25T13:54:26.188Z,2.97
2023-05-25T13:57:28.147Z,4.70
2023-05-25T14:00:30.065Z,3.88
2023-05-25T14:03:32.168Z,3.85
2023-05-25T14:09:37.009Z,3.42
2023-05-25T14:12:39.441Z,4.13
2023-05-25T14:15:41.487Z,3.65
2023-05-25T14:21:47.096Z,5.10
2023-05-25T14:24:51.818Z,3.03
2023-05-25T14:27:53.575Z,2.78
2023-05-25T14:30:56.113Z,3.80
2023-05-25T14:33:58.021Z,3.40
2023-05-25T14:36:59.887Z,3.78
2023-05-25T14:40:01.775Z,4.20
2023-05-25T14:43:03.615Z,3.45
2023-05-25T14:46:06.038Z,3.88
2023-05-25T14:49:07.808Z,2.67
2023-05-25T14:52:09.655Z,3.53
2023-05-25T14:55:11.493Z,3.53
2023-05-25T14:58:13.420Z,4.03
2023-05-25T15:01:15.239Z,4.07
2023-05-25T15:04:17.085Z,3.22
2023-05-25T15:07:18.942Z,3.63
2023-05-25T15:10:20.797Z,4.47
2023-05-25T15:13:22.849Z,3.22
2023-05-25T15:19:26.592Z,2.72
2023-05-25T15:22:28.474Z,3.10
2023-05-25T15:28:35.106Z,3.40
2023-05-25T15:31:36.961Z,3.47
2023-05-25T15:34:38.817Z,4.22
2023-05-25T15:37:40.682Z,4.32
2023-05-25T15:40:42.581Z,3.00
2023-05-25T15:43:58.179Z,2.63
2023-05-25T15:47:00.422Z,2.67
2023-05-25T15:50:02.212Z,2.95
2023-05-25T15:53:04.095Z,4.22
2023-05-25T15:56:06.045Z,2.45
2023-05-25T15:59:08.288Z,3.17
2023-05-25T16:02:10.350Z,2.78
2023-05-25T16:08:14.331Z,2.80
2023-05-25T16:11:16.216Z,3.60
2023-05-25T16:14:18.045Z,2.80
2023-05-25T16:17:20.138Z,3.22
2023-05-25T16:23:24.763Z,4.27
2023-05-25T16:26:27.209Z,2.50
2023-05-25T16:29:29.402Z,3.13
2023-05-25T16:35:33.077Z,1.95
2023-05-25T16:38:34.852Z,2.42
2023-05-25T16:41:36.709Z,5.53
2023-05-25T16:44:38.595Z,4.07
2023-05-25T16:47:40.740Z,2.80
2023-05-25T16:50:42.603Z,2.80
2023-05-25T16:53:45.271Z,3.33
2023-05-25T16:56:47.086Z,2.67
2023-05-25T16:59:48.891Z,4.00
2023-05-25T17:02:50.855Z,3.28
2023-05-25T17:05:53.920Z,5.63
2023-05-25T17:08:55.995Z,3.83
2023-05-25T17:11:59.693Z,5.15
2023-05-25T17:15:01.561Z,4.03
2023-05-25T17:18:03.609Z,3.95
2023-05-25T17:21:05.672Z,5.20
2023-05-25T17:24:07.721Z,5.05
2023-05-25T17:27:09.697Z,3.13
2023-05-25T17:30:12.007Z,3.55
2023-05-25T17:36:15.687Z,3.07
2023-05-25T17:39:17.588Z,3.45
2023-05-25T17:42:19.355Z,2.78
2023-05-25T17:45:21.167Z,2.92
2023-05-25T17:48:23.057Z,3.30
2023-05-25T17:51:24.940Z,3.22
2023-05-25T17:54:27.466Z,3.88
2023-05-25T17:57:29.315Z,3.58
2023-05-25T18:00:31.979Z,3.60
2023-05-25T18:03:33.955Z,3.55
2023-05-25T18:06:37.040Z,3.38
2023-05-25T18:09:38.947Z,3.97
2023-05-25T18:12:41.356Z,4.22
2023-05-25T18:18:45.650Z,4.50
2023-05-25T18:21:47.509Z,4.65
2023-05-25T18:24:49.416Z,3.25
2023-05-25T18:27:51.177Z,3.13
2023-05-25T18:30:53.159Z,3.22
2023-05-25T18:33:54.965Z,3.90
2023-05-25T18:36:56.713Z,3.63
2023-05-25T18:39:58.469Z,3.40
2023-05-25T18:43:00.288Z,4.05
2023-05-25T18:46:02.234Z,4.40
2023-05-25T18:49:04.290Z,3.35
2023-05-25T18:52:08.194Z,3.53
2023-05-25T18:55:10.281Z,3.70
2023-05-25T18:58:12.149Z,3.92
2023-05-25T19:01:14.095Z,5.03
2023-05-25T19:04:16.064Z,3.13
2023-05-25T19:07:17.985Z,3.38
2023-05-25T19:10:19.813Z,4.18
2023-05-25T19:13:23.061Z,5.57
2023-05-25T19:16:25.004Z,4.75
2023-05-25T19:19:26.865Z,4.78
2023-05-25T19:22:28.690Z,4.75
2023-05-25T19:25:30.614Z,3.78
2023-05-25T19:28:32.392Z,3.40
2023-05-25T19:31:34.247Z,4.40
2023-05-25T19:34:36.999Z,3.45
2023-05-25T19:37:38.851Z,3.90
2023-05-25T19:40:40.781Z,4.07
2023-05-25T19:43:42.598Z,4.60
2023-05-25T19:46:44.421Z,5.55
2023-05-25T19:49:47.904Z,4.30
2023-05-25T19:52:49.770Z,3.90
2023-05-25T19:55:51.626Z,3.75
2023-05-25T19:58:53.392Z,5.63
2023-05-25T20:01:55.616Z,4.03
2023-05-25T20:07:59.335Z,4.88
2023-05-25T20:11:01.166Z,4.60
2023-05-25T20:14:02.963Z,4.63
2023-05-25T20:17:04.843Z,3.75
2023-05-25T20:20:07.237Z,4.85
2023-05-25T20:26:11.528Z,4.03
2023-05-25T20:29:13.500Z,4.07
2023-05-25T20:32:15.830Z,3.35
2023-05-25T20:35:17.757Z,3.45
2023-05-25T20:38:19.556Z,3.33
2023-05-25T20:41:21.387Z,4.57
2023-05-25T20:44:23.180Z,3.75
2023-05-25T20:47:25.017Z,3.70
2023-05-25T20:50:27.171Z,3.63
2023-05-25T20:53:28.947Z,5.30
2023-05-25T20:56:31.229Z,3.90
2023-05-25T20:59:33.003Z,3.90
2023-05-25T21:02:34.914Z,3.30
2023-05-25T21:05:38.126Z,3.28
2023-05-25T21:08:39.967Z,3.95
2023-05-25T21:11:41.937Z,3.60
2023-05-25T21:14:43.823Z,3.85
2023-05-25T21:17:46.054Z,3.63
2023-05-25T21:20:47.897Z,4.95
2023-05-25T21:23:49.784Z,3.28
2023-05-25T21:26:51.746Z,3.25
2023-05-25T21:29:54.750Z,2.40
2023-05-25T21:32:56.651Z,4.63
2023-05-25T21:35:58.593Z,3.15
2023-05-25T21:39:00.424Z,3.30
2023-05-25T21:42:02.453Z,3.47
2023-05-25T21:45:05.631Z,3.90
2023-05-25T21:48:07.501Z,3.85
2023-05-25T21:51:09.528Z,5.10
2023-05-25T21:54:11.386Z,3.92
2023-05-25T21:57:13.246Z,4.10
2023-05-25T22:00:16.359Z,6.07
2023-05-25T22:03:18.606Z,4.95
2023-05-25T22:06:20.571Z,3.58
2023-05-25T22:09:22.938Z,5.40
2023-05-25T22:12:24.695Z,4.03
2023-05-25T22:15:26.558Z,3.28
2023-05-25T22:18:28.393Z,4.25
2023-05-25T22:21:30.217Z,4.32
2023-05-25T22:24:32.105Z,3.53
2023-05-25T22:27:34.012Z,3.90
2023-05-25T22:30:35.859Z,3.58
2023-05-25T22:33:37.738Z,4.05
2023-05-25T22:36:39.538Z,5.40
2023-05-25T22:39:41.320Z,4.40
2023-05-25T22:42:49.789Z,4.57
2023-05-25T22:45:54.039Z,5.32
2023-05-25T22:48:56.403Z,5.25
2023-05-25T22:51:58.313Z,8.75
2023-05-25T22:55:01.094Z,4.95
2023-05-25T22:58:02.949Z,4.55
2023-05-25T23:01:04.858Z,5.47
2023-05-25T23:04:06.847Z,5.25
2023-05-25T23:07:08.742Z,4.95
2023-05-25T23:10:11.308Z,5.25
2023-05-25T23:16:18.773Z,5.53
2023-05-25T23:19:20.702Z,6.07
2023-05-25T23:22:22.599Z,5.43
2023-05-25T23:25:24.426Z,5.70
2023-05-25T23:28:26.441Z,5.15
2023-05-25T23:31:29.329Z,5.70
2023-05-25T23:34:31.302Z,5.47
2023-05-25T23:37:33.572Z,5.53
2023-05-25T23:40:35.572Z,6.60
2023-05-25T23:43:37.400Z,5.75
2023-05-25T23:46:39.271Z,6.15
2023-05-25T23:49:41.078Z,5.22
2023-05-25T23:52:46.053Z,5.38
2023-05-25T23:55:47.927Z,6.13
2023-05-25T23:58:49.823Z,6.05
